PWSweather.com
Personal Weather Stations
Station Observations

LlefiĆ BadalonaES

Lat: 41.44, Lon: 2.2175

Elevation: 213.254

Station Type: oregon WMR918

http://www.estacionmeteorologicabadalonallefia.com

Latest ConditionsUpdated 6:06:49 PM GMT+01:01 Sunday, Apr 26, 2015
Currently Today's Max Today's Min Today's Average
Temperature 63.0°F17.2°C 63.9°F17.7°C 60.3°F15.7°C 62.1°F16.7°C
Dew Point 61.2°F16.2°C 62.0°F16.7°C 59.4°F15.2°C 60.5°F15.8°C
Winds 3.5 mph ESE5.6 kmh ESE 7.5 mph SE12.1 kmh SE - 3.1 mph 5.0 kmh
Wind Gusts 8.1 mph13.0 kmh 12.5 mph20.1 kmh - -
Humidity 94% 99% 90% 94%
Pressure 29.65 in1004.1 mb 29.88 in1011.9 mb 29.65 in1004.1 mb -
Hour Temp Dew Point Humidity Winds Wind Gusts Pressure Precip Precip Rate Daily Precip Total
06:06 PM 63.0°F17.2°C 61.2°F16.2°C 94% 3.5 mph ESE5.6 kmh ESE 8.1 mph13.0 kmh 29.65 in1004.1 mb - 0.00 in0.0 mm 0.00 in0.0 mm
05:56 PM 62.8°F17.1°C 60.7°F15.9°C 93% 4.6 mph E7.4 kmh E 7.6 mph12.2 kmh 29.65 in1004.1 mb - 0.00 in0.0 mm 0.00 in0.0 mm
05:46 PM 62.8°F17.1°C 60.7°F15.9°C 93% 4.7 mph ENE7.6 kmh ENE 10.5 mph16.9 kmh 29.65 in1004.1 mb - 0.00 in0.0 mm 0.00 in0.0 mm
05:36 PM 63.0°F17.2°C 60.6°F15.9°C 92% 4.1 mph E6.6 kmh E 8.1 mph13.0 kmh 29.65 in1004.1 mb - 0.00 in0.0 mm 0.00 in0.0 mm
05:26 PM 63.0°F17.2°C 60.3°F15.7°C 91% 4.3 mph ESE6.9 kmh ESE 7.6 mph12.2 kmh 29.65 in1004.1 mb - 0.00 in0.0 mm 0.00 in0.0 mm
05:16 PM 63.4°F17.4°C 60.4°F15.8°C 90% 7.5 mph NE12.1 kmh NE 12.5 mph20.1 kmh 29.65 in1004.1 mb - 0.00 in0.0 mm 0.00 in0.0 mm
05:06 PM 63.7°F17.6°C 60.7°F15.9°C 90% 3.0 mph ENE4.8 kmh ENE 5.2 mph8.4 kmh 29.65 in1004.1 mb - 0.00 in0.0 mm 0.00 in0.0 mm
04:56 PM 63.9°F17.7°C 60.9°F16.1°C 90% 3.9 mph SE6.3 kmh SE 7.6 mph12.2 kmh 29.68 in1005.1 mb - 0.00 in0.0 mm 0.00 in0.0 mm
04:46 PM 63.9°F17.7°C 60.9°F16.1°C 90% 5.0 mph ESE8.0 kmh ESE 8.1 mph13.0 kmh 29.68 in1005.1 mb - 0.00 in0.0 mm 0.00 in0.0 mm
04:36 PM 63.7°F17.6°C 60.7°F15.9°C 90% 3.4 mph SE5.5 kmh SE 7.0 mph11.3 kmh 29.68 in1005.1 mb - 0.00 in0.0 mm 0.00 in0.0 mm
04:26 PM 63.5°F17.5°C 60.8°F16.0°C 91% 0.8 mph E1.3 kmh E 5.2 mph8.4 kmh 29.68 in1005.1 mb - 0.00 in0.0 mm 0.00 in0.0 mm
04:16 PM 63.1°F17.3°C 60.5°F15.8°C 91% 3.9 mph SSE6.3 kmh SSE 7.6 mph12.2 kmh 29.68 in1005.1 mb - 0.00 in0.0 mm 0.00 in0.0 mm
04:06 PM 62.8°F17.1°C 60.1°F15.6°C 91% 5.4 mph SE8.7 kmh SE 8.1 mph13.0 kmh 29.68 in1005.1 mb - 0.00 in0.0 mm 0.00 in0.0 mm
03:56 PM 62.8°F17.1°C 60.1°F15.6°C 91% 5.1 mph SSE8.2 kmh SSE 8.1 mph13.0 kmh 29.68 in1005.1 mb - 0.00 in0.0 mm 0.00 in0.0 mm
03:46 PM 62.6°F17.0°C 59.6°F15.3°C 90% 7.3 mph SE11.7 kmh SE 9.9 mph15.9 kmh 29.68 in1005.1 mb - 0.00 in0.0 mm 0.00 in0.0 mm
03:36 PM 62.6°F17.0°C 59.6°F15.3°C 90% 6.0 mph SSE9.7 kmh SSE 8.1 mph13.0 kmh 29.68 in1005.1 mb - 0.00 in0.0 mm 0.00 in0.0 mm
03:26 PM 62.8°F17.1°C 60.1°F15.6°C 91% 4.2 mph SSE6.8 kmh SSE 7.6 mph12.2 kmh 29.68 in1005.1 mb - 0.00 in0.0 mm 0.00 in0.0 mm
03:16 PM 62.4°F16.9°C 60.1°F15.6°C 92% 6.4 mph SSE10.3 kmh SSE 8.1 mph13.0 kmh 29.71 in1006.1 mb - 0.00 in0.0 mm 0.00 in0.0 mm
03:06 PM 62.6°F17.0°C 60.9°F16.1°C 94% 5.4 mph SSE8.7 kmh SSE 11.3 mph18.2 kmh 29.71 in1006.1 mb - 0.00 in0.0 mm 0.00 in0.0 mm
02:56 PM 62.8°F17.1°C 61.0°F16.1°C 94% 6.5 mph SE10.5 kmh SE 11.3 mph18.2 kmh 29.71 in1006.1 mb - 0.00 in0.0 mm 0.00 in0.0 mm
02:46 PM 62.8°F17.1°C 60.7°F15.9°C 93% 6.8 mph SE10.9 kmh SE 11.9 mph19.2 kmh 29.71 in1006.1 mb - 0.00 in0.0 mm 0.00 in0.0 mm
02:36 PM 63.1°F17.3°C 61.3°F16.3°C 94% 5.7 mph SSE9.2 kmh SSE 10.5 mph16.9 kmh 29.71 in1006.1 mb - 0.00 in0.0 mm 0.00 in0.0 mm
02:26 PM 63.3°F17.4°C 61.2°F16.2°C 93% 5.3 mph SSE8.5 kmh SSE 7.0 mph11.3 kmh 29.71 in1006.1 mb - 0.00 in0.0 mm 0.00 in0.0 mm
02:16 PM 63.7°F17.6°C 61.7°F16.5°C 93% 5.2 mph S8.4 kmh S 9.9 mph15.9 kmh 29.71 in1006.1 mb - 0.00 in0.0 mm 0.00 in0.0 mm
02:06 PM 63.8°F17.7°C 62.0°F16.7°C 94% 5.2 mph SSE8.4 kmh SSE 8.1 mph13.0 kmh 29.71 in1006.1 mb - 0.00 in0.0 mm 0.00 in0.0 mm
01:56 PM 63.7°F17.6°C 61.3°F16.3°C 92% 6.9 mph SE11.1 kmh SE 8.1 mph13.0 kmh 29.71 in1006.1 mb - 0.00 in0.0 mm 0.00 in0.0 mm
01:46 PM 63.9°F17.7°C 61.2°F16.2°C 91% 7.4 mph SE11.9 kmh SE 10.5 mph16.9 kmh 29.71 in1006.1 mb - 0.00 in0.0 mm 0.00 in0.0 mm
01:36 PM 63.5°F17.5°C 60.8°F16.0°C 91% 7.5 mph SE12.1 kmh SE 11.3 mph18.2 kmh 29.71 in1006.1 mb - 0.00 in0.0 mm 0.00 in0.0 mm
01:26 PM 63.5°F17.5°C 60.8°F16.0°C 91% 6.9 mph ESE11.1 kmh ESE 11.3 mph18.2 kmh 29.74 in1007.1 mb - 0.00 in0.0 mm 0.00 in0.0 mm
01:16 PM 63.8°F17.7°C 61.7°F16.5°C 93% 3.9 mph ESE6.3 kmh ESE 5.2 mph8.4 kmh 29.74 in1007.1 mb - 0.00 in0.0 mm 0.00 in0.0 mm
01:06 PM 63.4°F17.4°C 61.0°F16.1°C 92% 4.8 mph ESE7.7 kmh ESE 9.9 mph15.9 kmh 29.74 in1007.1 mb - 0.00 in0.0 mm 0.00 in0.0 mm
12:56 PM 63.6°F17.6°C 61.6°F16.4°C 93% 4.3 mph SE6.9 kmh SE 10.7 mph17.2 kmh 29.74 in1007.1 mb - 0.00 in0.0 mm 0.00 in0.0 mm
12:46 PM 63.3°F17.4°C 61.3°F16.3°C 93% 4.9 mph E7.9 kmh E 7.6 mph12.2 kmh 29.74 in1007.1 mb - 0.00 in0.0 mm 0.00 in0.0 mm
12:36 PM 63.0°F17.2°C 61.0°F16.1°C 93% 5.9 mph ESE9.5 kmh ESE 8.7 mph14.0 kmh 29.74 in1007.1 mb - 0.00 in0.0 mm 0.00 in0.0 mm
12:26 PM 63.5°F17.5°C 61.7°F16.5°C 94% 5.4 mph SE8.7 kmh SE 10.5 mph16.9 kmh 29.77 in1008.1 mb - 0.00 in0.0 mm 0.00 in0.0 mm
12:16 PM 63.1°F17.3°C 61.4°F16.3°C 94% 5.8 mph SE9.3 kmh SE 7.6 mph12.2 kmh 29.77 in1008.1 mb - 0.00 in0.0 mm 0.00 in0.0 mm
12:06 PM 63.1°F17.3°C 61.3°F16.3°C 94% 5.4 mph SE8.7 kmh SE 9.9 mph15.9 kmh 29.77 in1008.1 mb - 0.00 in0.0 mm 0.00 in0.0 mm
11:56 AM 62.8°F17.1°C 60.7°F15.9°C 93% 5.9 mph SE9.5 kmh SE 7.0 mph11.3 kmh 29.77 in1008.1 mb - 0.00 in0.0 mm 0.00 in0.0 mm
11:46 AM 63.0°F17.2°C 60.9°F16.1°C 93% 5.9 mph ESE9.5 kmh ESE 10.7 mph17.2 kmh 29.77 in1008.1 mb - 0.00 in0.0 mm 0.00 in0.0 mm
11:36 AM 62.8°F17.1°C 60.8°F16.0°C 93% 6.7 mph SE10.8 kmh SE 10.7 mph17.2 kmh 29.77 in1008.1 mb - 0.00 in0.0 mm 0.00 in0.0 mm
11:26 AM 63.0°F17.2°C 60.9°F16.1°C 93% 5.2 mph E8.4 kmh E 7.0 mph11.3 kmh 29.77 in1008.1 mb - 0.00 in0.0 mm 0.00 in0.0 mm
11:16 AM 62.8°F17.1°C 60.4°F15.8°C 92% 7.2 mph SSE11.6 kmh SSE 10.7 mph17.2 kmh 29.77 in1008.1 mb - 0.00 in0.0 mm 0.00 in0.0 mm
11:06 AM 63.1°F17.3°C 60.8°F16.0°C 92% 5.2 mph SSE8.4 kmh SSE 9.9 mph15.9 kmh 29.77 in1008.1 mb - 0.00 in0.0 mm 0.00 in0.0 mm
10:56 AM 63.3°F17.4°C 61.0°F16.1°C 92% 4.1 mph SE6.6 kmh SE 10.5 mph16.9 kmh 29.80 in1009.1 mb - 0.00 in0.0 mm 0.00 in0.0 mm
10:46 AM 63.1°F17.3°C 60.8°F16.0°C 92% 3.8 mph ENE6.1 kmh ENE 9.9 mph15.9 kmh 29.80 in1009.1 mb - 0.00 in0.0 mm 0.00 in0.0 mm
10:36 AM 63.0°F17.2°C 60.6°F15.9°C 92% 3.8 mph SE6.1 kmh SE 8.1 mph13.0 kmh 29.80 in1009.1 mb - 0.00 in0.0 mm 0.00 in0.0 mm
10:26 AM 62.6°F17.0°C 60.2°F15.7°C 92% 3.1 mph E5.0 kmh E 7.0 mph11.3 kmh 29.80 in1009.1 mb - 0.00 in0.0 mm 0.00 in0.0 mm
10:16 AM 62.4°F16.9°C 60.4°F15.8°C 93% 1.9 mph E3.1 kmh E 4.6 mph7.4 kmh 29.80 in1009.1 mb - 0.00 in0.0 mm 0.00 in0.0 mm
10:06 AM 62.4°F16.9°C 60.4°F15.8°C 93% 1.1 mph E1.8 kmh E 4.6 mph7.4 kmh 29.80 in1009.1 mb - 0.00 in0.0 mm 0.00 in0.0 mm
09:56 AM 62.2°F16.8°C 60.2°F15.7°C 93% 2.6 mph E4.2 kmh E 4.6 mph7.4 kmh 29.80 in1009.1 mb - 0.00 in0.0 mm 0.00 in0.0 mm
09:46 AM 62.1°F16.7°C 59.4°F15.2°C 91% 4.5 mph SE7.2 kmh SE 8.1 mph13.0 kmh 29.80 in1009.1 mb - 0.00 in0.0 mm 0.00 in0.0 mm
09:36 AM 62.2°F16.8°C 60.2°F15.7°C 93% 2.9 mph ESE4.7 kmh ESE 4.1 mph6.6 kmh 29.80 in1009.1 mb - 0.00 in0.0 mm 0.00 in0.0 mm
09:26 AM 62.1°F16.7°C 60.0°F15.6°C 93% 2.3 mph SSE3.7 kmh SSE 5.2 mph8.4 kmh 29.80 in1009.1 mb - 0.00 in0.0 mm 0.00 in0.0 mm
09:16 AM 62.1°F16.7°C 60.0°F15.6°C 93% 4.0 mph ESE6.4 kmh ESE 7.0 mph11.3 kmh 29.80 in1009.1 mb - 0.00 in0.0 mm 0.00 in0.0 mm
09:06 AM 61.9°F16.6°C 59.5°F15.3°C 92% 3.9 mph E6.3 kmh E 4.1 mph6.6 kmh 29.80 in1009.1 mb - 0.00 in0.0 mm 0.00 in0.0 mm
08:56 AM 61.7°F16.5°C 59.7°F15.4°C 93% 5.5 mph SE8.9 kmh SE 9.9 mph15.9 kmh 29.80 in1009.1 mb - 0.00 in0.0 mm 0.00 in0.0 mm
08:46 AM 61.7°F16.5°C 60.3°F15.7°C 95% 2.7 mph SE4.3 kmh SE 5.2 mph8.4 kmh 29.80 in1009.1 mb - 0.00 in0.0 mm 0.00 in0.0 mm
08:36 AM 61.7°F16.5°C 60.5°F15.8°C 96% 2.1 mph N3.4 kmh N 4.1 mph6.6 kmh 29.80 in1009.1 mb - 0.00 in0.0 mm 0.00 in0.0 mm
08:26 AM 61.5°F16.4°C 60.4°F15.8°C 96% Calm Calm -- 29.80 in1009.1 mb - 0.00 in0.0 mm 0.00 in0.0 mm
08:16 AM 61.1°F16.2°C 59.9°F15.5°C 96% Calm Calm -- 29.80 in1009.1 mb - 0.00 in0.0 mm 0.00 in0.0 mm
08:06 AM 61.0°F16.1°C 59.8°F15.4°C 96% Calm Calm 2.9 mph4.7 kmh 29.80 in1009.1 mb - 0.00 in0.0 mm 0.00 in0.0 mm
07:56 AM 60.8°F16.0°C 59.7°F15.4°C 96% Calm Calm 3.5 mph5.6 kmh 29.80 in1009.1 mb - 0.00 in0.0 mm 0.00 in0.0 mm
07:46 AM 60.3°F15.7°C 59.4°F15.2°C 97% 4.5 mph SSE7.2 kmh SSE 6.4 mph10.3 kmh 29.82 in1009.8 mb - 0.00 in0.0 mm 0.00 in0.0 mm
07:36 AM 60.4°F15.8°C 59.6°F15.3°C 97% 1.7 mph SE2.7 kmh SE 3.5 mph5.6 kmh 29.82 in1009.8 mb - 0.00 in0.0 mm 0.00 in0.0 mm
07:26 AM 60.3°F15.7°C 59.7°F15.4°C 98% 4.0 mph SE6.4 kmh SE 7.6 mph12.2 kmh 29.82 in1009.8 mb - 0.00 in0.0 mm 0.00 in0.0 mm
07:16 AM 60.4°F15.8°C 59.9°F15.5°C 98% 3.5 mph SSE5.6 kmh SSE 5.2 mph8.4 kmh 29.82 in1009.8 mb - 0.00 in0.0 mm 0.00 in0.0 mm
07:06 AM 60.8°F16.0°C 60.5°F15.8°C 99% 3.2 mph SE5.1 kmh SE 7.0 mph11.3 kmh 29.82 in1009.8 mb - 0.00 in0.0 mm 0.00 in0.0 mm
06:56 AM 60.4°F15.8°C 60.2°F15.7°C 99% 2.5 mph SE4.0 kmh SE 3.5 mph5.6 kmh 29.80 in1009.1 mb - 0.00 in0.0 mm 0.00 in0.0 mm
06:46 AM 60.4°F15.8°C 60.2°F15.7°C 99% 2.5 mph ESE4.0 kmh ESE 4.6 mph7.4 kmh 29.80 in1009.1 mb - 0.00 in0.0 mm 0.00 in0.0 mm
06:36 AM 60.8°F16.0°C 60.5°F15.8°C 99% 1.8 mph E2.9 kmh E 3.5 mph5.6 kmh 29.80 in1009.1 mb - 0.00 in0.0 mm 0.00 in0.0 mm
06:26 AM 60.8°F16.0°C 60.2°F15.7°C 98% 2.7 mph SE4.3 kmh SE 5.2 mph8.4 kmh 29.80 in1009.1 mb - 0.00 in0.0 mm 0.00 in0.0 mm
06:16 AM 60.8°F16.0°C 60.2°F15.7°C 98% 4.2 mph SE6.8 kmh SE 7.6 mph12.2 kmh 29.82 in1009.8 mb - 0.00 in0.0 mm 0.00 in0.0 mm
06:06 AM 60.8°F16.0°C 60.2°F15.7°C 98% 3.0 mph SE4.8 kmh SE 5.2 mph8.4 kmh 29.82 in1009.8 mb - 0.00 in0.0 mm 0.00 in0.0 mm
05:56 AM 60.8°F16.0°C 59.9°F15.5°C 97% Calm Calm 6.4 mph10.3 kmh 29.80 in1009.1 mb - 0.00 in0.0 mm 0.00 in0.0 mm
05:46 AM 60.8°F16.0°C 59.9°F15.5°C 97% 2.9 mph S4.7 kmh S 4.6 mph7.4 kmh 29.80 in1009.1 mb - 0.00 in0.0 mm 0.00 in0.0 mm
05:26 AM 60.8°F16.0°C 59.9°F15.5°C 97% Calm Calm -- 29.80 in1009.1 mb - 0.00 in0.0 mm 0.00 in0.0 mm
05:16 AM 60.6°F15.9°C 59.8°F15.4°C 97% Calm Calm -- 29.80 in1009.1 mb - 0.00 in0.0 mm 0.00 in0.0 mm
05:06 AM 60.8°F16.0°C 59.9°F15.5°C 97% Calm Calm -- 29.80 in1009.1 mb - 0.00 in0.0 mm 0.00 in0.0 mm
04:56 AM 61.0°F16.1°C 60.1°F15.6°C 97% Calm Calm -- 29.80 in1009.1 mb - 0.00 in0.0 mm 0.00 in0.0 mm
04:46 AM 61.0°F16.1°C 60.1°F15.6°C 97% Calm Calm -- 29.80 in1009.1 mb - 0.00 in0.0 mm 0.00 in0.0 mm
04:36 AM 61.2°F16.2°C 60.3°F15.7°C 97% Calm Calm -- 29.80 in1009.1 mb - 0.00 in0.0 mm 0.00 in0.0 mm
04:26 AM 61.3°F16.3°C 60.5°F15.8°C 97% 2.4 mph E3.9 kmh E 5.2 mph8.4 kmh 29.82 in1009.8 mb - 0.00 in0.0 mm 0.00 in0.0 mm
04:16 AM 61.3°F16.3°C 60.5°F15.8°C 97% 1.1 mph NE1.8 kmh NE 4.1 mph6.6 kmh 29.82 in1009.8 mb - 0.00 in0.0 mm 0.00 in0.0 mm
04:06 AM 61.3°F16.3°C 60.5°F15.8°C 97% Calm Calm 4.6 mph7.4 kmh 29.82 in1009.8 mb - 0.00 in0.0 mm 0.00 in0.0 mm
03:56 AM 60.8°F16.0°C 59.7°F15.4°C 96% Calm Calm -- 29.82 in1009.8 mb - 0.00 in0.0 mm 0.00 in0.0 mm
03:46 AM 60.8°F16.0°C 59.9°F15.5°C 97% Calm Calm -- 29.82 in1009.8 mb - 0.00 in0.0 mm 0.00 in0.0 mm
03:36 AM 61.0°F16.1°C 60.1°F15.6°C 97% Calm Calm 3.5 mph5.6 kmh 29.82 in1009.8 mb - 0.00 in0.0 mm 0.00 in0.0 mm
03:26 AM 61.0°F16.1°C 59.8°F15.4°C 96% Calm Calm -- 29.82 in1009.8 mb - 0.00 in0.0 mm 0.00 in0.0 mm
03:16 AM 61.3°F16.3°C 60.5°F15.8°C 97% Calm Calm 4.1 mph6.6 kmh 29.86 in1011.2 mb - 0.00 in0.0 mm 0.00 in0.0 mm
03:06 AM 61.5°F16.4°C 60.7°F15.9°C 97% Calm Calm -- 29.86 in1011.2 mb - 0.00 in0.0 mm 0.00 in0.0 mm
02:56 AM 61.5°F16.4°C 60.7°F15.9°C 97% Calm Calm -- 29.86 in1011.2 mb - 0.00 in0.0 mm 0.00 in0.0 mm
02:46 AM 61.5°F16.4°C 60.7°F15.9°C 97% Calm Calm 3.5 mph5.6 kmh 29.86 in1011.2 mb - 0.00 in0.0 mm 0.00 in0.0 mm
02:36 AM 61.5°F16.4°C 60.7°F15.9°C 97% Calm Calm -- 29.86 in1011.2 mb - 0.00 in0.0 mm 0.00 in0.0 mm
02:26 AM 61.5°F16.4°C 60.7°F15.9°C 97% Calm Calm -- 29.86 in1011.2 mb - 0.00 in0.0 mm 0.00 in0.0 mm
02:16 AM 61.5°F16.4°C 60.7°F15.9°C 97% Calm Calm -- 29.86 in1011.2 mb - 0.00 in0.0 mm 0.00 in0.0 mm
02:06 AM 61.5°F16.4°C 60.7°F15.9°C 97% Calm Calm -- 29.86 in1011.2 mb - 0.00 in0.0 mm 0.00 in0.0 mm
01:56 AM 61.6°F16.4°C 60.7°F15.9°C 97% 1.7 mph NE2.7 kmh NE -- 29.86 in1011.2 mb - 0.00 in0.0 mm 0.00 in0.0 mm
01:46 AM 61.7°F16.5°C 60.8°F16.0°C 97% 2.4 mph ENE3.9 kmh ENE 5.2 mph8.4 kmh 29.86 in1011.2 mb - 0.00 in0.0 mm 0.00 in0.0 mm
01:36 AM 61.9°F16.6°C 60.7°F15.9°C 96% 3.5 mph NE5.6 kmh NE 6.4 mph10.3 kmh 29.86 in1011.2 mb - 0.00 in0.0 mm 0.00 in0.0 mm
01:26 AM 61.9°F16.6°C 60.7°F15.9°C 96% 3.9 mph N6.3 kmh N 7.0 mph11.3 kmh 29.88 in1011.9 mb - 0.00 in0.0 mm 0.00 in0.0 mm
01:16 AM 62.1°F16.7°C 60.9°F16.1°C 96% 1.0 mph NE1.6 kmh NE 5.2 mph8.4 kmh 29.88 in1011.9 mb - 0.00 in0.0 mm 0.00 in0.0 mm
01:06 AM 62.1°F16.7°C 60.9°F16.1°C 96% Calm Calm 3.5 mph5.6 kmh 29.88 in1011.9 mb - 0.00 in0.0 mm 0.00 in0.0 mm
12:56 AM 62.1°F16.7°C 60.9°F16.1°C 96% Calm Calm 3.5 mph5.6 kmh 29.88 in1011.9 mb - 0.00 in0.0 mm 0.00 in0.0 mm
12:46 AM 62.1°F16.7°C 60.6°F15.9°C 95% Calm Calm 3.5 mph5.6 kmh 29.88 in1011.9 mb - 0.00 in0.0 mm 0.00 in0.0 mm
12:26 AM 61.9°F16.6°C 60.4°F15.8°C 95% Calm Calm 2.9 mph4.7 kmh 29.88 in1011.9 mb - 0.00 in0.0 mm 0.00 in0.0 mm
12:16 AM 61.9°F16.6°C 60.4°F15.8°C 95% Calm Calm 3.5 mph5.6 kmh 29.88 in1011.9 mb - 0.00 in0.0 mm 0.00 in0.0 mm
12:06 AM 61.9°F16.6°C 60.4°F15.8°C 95% 2.7 mph SE4.3 kmh SE 5.2 mph8.4 kmh 29.88 in1011.9 mb - 0.00 in0.0 mm 0.00 in0.0 mm